Time;durP1;ratioP1;P1;durP2;ratioP2;P2;SDS_P1;SDS_P2;PMS_P1;PMS_P2;Temp;Humidity;BMP_temperature;BMP_pressure;BME280_temperature;BME280_humidity;BME280_pressure;Samples;Min_cycle;Max_cycle;Signal;HPM_P1;HPM_P2
2021/06/03 00:02:07;;;;;;;15.55;7.80;;;;;;;7.39;64.77;97940.38;1797022;77;25387;-80
2021/06/03 00:04:34;;;;;;;14.73;6.95;;;;;;;7.37;64.75;97943.75;1789058;78;25803;-82
2021/06/03 00:07:01;;;;;;;12.58;6.53;;;;;;;7.35;64.85;97944.45;1769988;80;27276;-84
2021/06/03 00:09:27;;;;;;;12.15;6.78;;;;;;;7.33;64.85;97947.82;1771412;79;25743;-85
2021/06/03 00:11:54;;;;;;;9.08;7.10;;;;;;;7.31;65.00;97951.69;1785617;80;26145;-84
2021/06/03 00:14:21;;;;;;;12.53;7.60;;;;;;;7.29;65.05;97952.37;1785096;79;25724;-88
2021/06/03 00:16:48;;;;;;;12.30;7.05;;;;;;;7.17;65.05;97958.65;1776586;78;25717;-81
2021/06/03 00:19:14;;;;;;;13.60;7.65;;;;;;;7.12;65.20;97965.08;1775807;79;27453;-82
2021/06/03 00:21:43;;;;;;;10.55;6.50;;;;;;;7.06;65.32;97966.59;1785464;79;26029;-84
2021/06/03 00:24:12;;;;;;;14.38;7.78;;;;;;;7.04;65.36;97959.72;1785203;79;25920;-83
2021/06/03 00:26:39;;;;;;;11.97;7.83;;;;;;;7.00;65.38;97965.13;1777809;79;26278;-81
2021/06/03 00:29:06;;;;;;;21.93;8.00;;;;;;;6.97;65.42;97957.42;1765201;80;25781;-83
2021/06/03 00:31:33;;;;;;;13.22;7.87;;;;;;;6.95;65.50;97958.09;1785849;77;27358;-86
2021/06/03 00:34:01;;;;;;;10.98;7.17;;;;;;;6.95;65.57;97967.49;1796838;79;25645;-78
2021/06/03 00:36:27;;;;;;;15.18;8.05;;;;;;;6.92;65.58;97964.64;1776796;78;25882;-79
2021/06/03 00:38:54;;;;;;;12.73;7.42;;;;;;;6.88;65.66;97968.17;1785670;79;25391;-79
2021/06/03 00:41:21;;;;;;;10.35;6.75;;;;;;;6.84;65.76;97966.87;1780805;79;25614;-78
2021/06/03 00:43:47;;;;;;;19.32;8.30;;;;;;;6.78;65.81;97972.92;1775988;78;27256;-80
2021/06/03 00:46:14;;;;;;;10.75;7.03;;;;;;;6.77;65.93;97968.56;1816578;77;25695;-81
2021/06/03 00:48:41;;;;;;;12.73;7.00;;;;;;;6.75;66.05;97970.61;1833666;77;25756;-84
2021/06/03 00:51:09;;;;;;;14.40;7.53;;;;;;;6.75;66.06;97971.95;1833631;77;26402;-79
2021/06/03 00:53:39;;;;;;;9.45;6.80;;;;;;;6.71;66.05;97975.14;1818822;77;25877;-81
2021/06/03 00:56:07;;;;;;;10.58;6.40;;;;;;;6.67;66.14;97975.14;1833584;77;28148;-79
2021/06/03 00:58:37;;;;;;;10.93;6.65;;;;;;;6.65;66.24;97972.63;1833410;77;25771;-84
2021/06/03 01:01:04;;;;;;;10.60;6.17;;;;;;;6.62;66.27;97970.31;1833579;76;25710;-81
2021/06/03 01:03:33;;;;;;;10.18;6.17;;;;;;;6.59;66.30;97977.36;1833542;77;25829;-87
2021/06/03 01:06:05;;;;;;;12.20;6.12;;;;;;;6.56;66.36;97975.02;1818601;76;26386;-83
2021/06/03 01:08:40;;;;;;;12.43;6.75;;;;;;;6.52;66.44;97980.38;1808698;77;28183;-85
2021/06/03 01:11:37;;;;;;;10.23;6.42;;;;;;;6.50;66.43;97982.42;1832578;76;25722;-83
2021/06/03 01:14:11;;;;;;;9.70;5.97;;;;;;;6.47;66.45;97983.59;1833511;77;25792;-83
2021/06/03 01:16:38;;;;;;;11.43;6.53;;;;;;;6.43;66.59;97985.44;1833431;77;26255;-81
2021/06/03 01:19:13;;;;;;;9.20;5.58;;;;;;;6.41;66.64;97980.23;1833498;77;25683;-87
2021/06/03 01:22:00;;;;;;;13.08;5.83;;;;;;;6.40;66.62;97981.24;1798943;77;27437;-85
2021/06/03 01:24:30;;;;;;;10.05;5.83;;;;;;;6.39;66.63;97980.94;1832620;77;25286;-83
2021/06/03 01:27:01;;;;;;;8.55;6.05;;;;;;;6.38;66.76;97978.42;1798134;78;26459;-85
2021/06/03 01:29:33;;;;;;;10.25;6.35;;;;;;;6.36;66.87;97981.78;1813725;77;25748;-85
2021/06/03 01:32:00;;;;;;;16.25;6.92;;;;;;;6.35;66.92;97975.58;1813765;78;26317;-87
2021/06/03 01:34:27;;;;;;;12.90;6.65;;;;;;;6.34;66.89;97975.74;1813891;77;27419;-87
2021/06/03 01:36:54;;;;;;;8.53;6.67;;;;;;;6.30;66.96;97976.58;1813738;77;25770;-84
2021/06/03 01:39:21;;;;;;;11.63;6.15;;;;;;;6.27;66.98;97976.11;1813581;77;25719;-86
2021/06/03 01:41:48;;;;;;;8.63;5.67;;;;;;;6.26;67.03;97972.59;1813579;77;26123;-82
2021/06/03 01:44:16;;;;;;;9.75;5.78;;;;;;;6.24;67.14;97985.82;1813652;77;27512;-87
2021/06/03 01:46:43;;;;;;;8.30;6.25;;;;;;;6.25;67.23;97984.31;1810405;77;28364;-83
2021/06/03 01:49:09;;;;;;;8.43;5.85;;;;;;;6.24;67.28;97984.48;1808215;77;25762;-83
2021/06/03 01:51:36;;;;;;;9.20;5.72;;;;;;;6.23;67.39;97988.16;1808509;77;25811;-85
2021/06/03 01:54:03;;;;;;;7.83;5.67;;;;;;;6.22;67.43;97983.81;1808359;77;25881;-89
2021/06/03 01:56:30;;;;;;;8.75;6.10;;;;;;;6.21;67.53;97986.16;1808204;77;25681;-91
2021/06/03 01:58:58;;;;;;;11.35;6.37;;;;;;;6.20;67.65;97988.00;1805835;79;27342;-90
2021/06/03 02:01:24;;;;;;;9.10;6.40;;;;;;;6.18;67.74;97990.50;1780895;77;26193;-89
2021/06/03 02:03:51;;;;;;;6.78;5.65;;;;;;;6.14;67.80;97992.71;1811610;78;25776;-88
2021/06/03 02:06:18;;;;;;;8.23;5.87;;;;;;;6.13;67.83;97991.88;1806740;77;25771;-89
2021/06/03 02:08:45;;;;;;;10.03;5.42;;;;;;;6.14;67.93;97988.19;1805312;77;25732;-90
2021/06/03 02:11:11;;;;;;;9.85;5.80;;;;;;;6.13;68.01;97994.55;1813702;78;27458;-85
2021/06/03 02:13:45;;;;;;;7.92;5.40;;;;;;;6.10;68.06;97991.36;1813673;77;25696;-89
2021/06/03 02:16:25;;;;;;;10.48;5.78;;;;;;;6.09;68.09;97997.22;1813763;78;25680;-88
2021/06/03 02:19:08;;;;;;;11.18;6.28;;;;;;;6.10;68.10;97994.88;1802862;78;26440;-87
2021/06/03 02:21:40;;;;;;;7.45;5.70;;;;;;;6.08;68.15;98000.91;1813539;78;25250;-91
2021/06/03 02:24:09;;;;;;;8.25;6.53;;;;;;;6.08;68.15;97994.20;1813596;78;27444;-78
2021/06/03 02:26:38;;;;;;;7.50;5.50;;;;;;;6.05;68.21;97998.55;1813682;78;25716;-79
2021/06/03 02:29:05;;;;;;;8.78;6.20;;;;;;;6.05;68.33;97995.87;1813910;78;25281;-78
2021/06/03 02:31:34;;;;;;;9.35;6.17;;;;;;;6.05;68.36;97994.53;1813682;77;26342;-80
2021/06/03 02:34:00;;;;;;;11.70;6.58;;;;;;;6.05;68.33;97996.37;1813725;78;25759;-82
2021/06/03 02:36:28;;;;;;;10.40;5.92;;;;;;;6.04;68.42;97990.17;1813824;78;28447;-79
2021/06/03 02:38:56;;;;;;;7.80;6.12;;;;;;;6.01;68.39;97993.22;1813699;77;25786;-82
2021/06/03 02:41:23;;;;;;;12.25;6.53;;;;;;;5.99;68.46;98005.95;1813849;78;25763;-79
2021/06/03 02:43:50;;;;;;;10.30;6.55;;;;;;;5.95;68.52;98003.26;1813811;78;26285;-81
2021/06/03 02:46:20;;;;;;;12.37;6.30;;;;;;;5.92;68.60;98004.92;1819324;77;26086;-79
2021/06/03 02:48:47;;;;;;;12.18;6.08;;;;;;;5.91;68.66;98011.31;1833230;77;27458;-89
2021/06/03 02:51:15;;;;;;;8.28;6.20;;;;;;;5.87;68.73;98006.41;1833569;77;25807;-81
2021/06/03 02:53:44;;;;;;;11.85;7.03;;;;;;;5.87;68.79;98011.77;1833555;76;25737;-89
2021/06/03 02:56:11;;;;;;;10.68;7.00;;;;;;;5.87;68.84;98013.95;1833769;77;25722;-79
2021/06/03 02:58:37;;;;;;;8.50;6.17;;;;;;;5.87;68.86;98016.63;1833658;77;25631;-88
2021/06/03 03:01:05;;;;;;;9.75;6.28;;;;;;;5.85;68.87;98021.31;1833728;77;27457;-91
2021/06/03 03:03:31;;;;;;;11.28;5.87;;;;;;;5.83;69.04;98026.00;1833649;77;25816;-87
2021/06/03 03:05:58;;;;;;;9.25;6.42;;;;;;;5.79;69.03;98020.66;1833598;77;25651;-89
2021/06/03 03:08:25;;;;;;;11.50;6.83;;;;;;;5.79;69.13;98020.16;1833698;77;25810;-88
2021/06/03 03:10:56;;;;;;;9.20;6.17;;;;;;;5.80;69.17;98016.94;1833728;77;25715;-89
2021/06/03 03:13:23;;;;;;;9.03;6.00;;;;;;;5.82;69.12;98014.10;1833694;78;27366;-88
2021/06/03 03:15:50;;;;;;;9.28;6.17;;;;;;;5.82;69.12;98015.44;1833599;77;25754;-90
2021/06/03 03:18:17;;;;;;;8.78;6.50;;;;;;;5.83;69.15;98021.14;1833608;77;25682;-91
2021/06/03 03:20:44;;;;;;;8.75;6.12;;;;;;;5.83;69.24;98024.66;1833749;77;25977;-92
2021/06/03 03:23:12;;;;;;;6.97;5.83;;;;;;;5.80;69.40;98016.94;1833830;77;25691;-92
2021/06/03 03:25:40;;;;;;;11.63;6.85;;;;;;;5.77;69.51;98015.96;1833266;76;27452;-91
2021/06/03 03:28:09;;;;;;;9.25;6.42;;;;;;;5.76;69.54;98026.34;1833464;77;25707;-91
2021/06/03 03:30:42;;;;;;;10.98;6.75;;;;;;;5.79;69.65;98027.35;1833510;77;25265;-91
2021/06/03 03:33:13;;;;;;;13.53;6.47;;;;;;;5.83;69.69;98026.00;1833538;76;25731;-89
2021/06/03 03:35:41;;;;;;;10.63;6.53;;;;;;;5.87;69.67;98027.34;1833675;77;25791;-89
2021/06/03 03:38:08;;;;;;;9.33;6.30;;;;;;;5.90;69.64;98028.39;1833710;77;27207;-81
2021/06/03 03:40:35;;;;;;;10.23;6.42;;;;;;;5.91;69.58;98030.07;1833591;76;25722;-83
2021/06/03 03:43:01;;;;;;;8.40;5.95;;;;;;;5.92;69.52;98031.72;1833585;77;25868;-79
2021/06/03 03:45:28;;;;;;;10.40;6.35;;;;;;;5.92;69.59;98035.73;1833677;78;26288;-77
2021/06/03 03:47:55;;;;;;;9.20;6.62;;;;;;;5.95;69.72;98035.41;1803628;77;25747;-78
2021/06/03 03:50:22;;;;;;;10.28;6.53;;;;;;;5.96;69.65;98033.07;1797138;77;27388;-79
2021/06/03 03:52:49;;;;;;;10.65;6.50;;;;;;;5.98;69.69;98031.06;1797214;77;25812;-78
2021/06/03 03:55:17;;;;;;;8.48;6.65;;;;;;;5.98;69.68;98029.73;1797218;77;25697;-86
2021/06/03 03:57:46;;;;;;;14.73;6.70;;;;;;;6.00;69.76;98032.24;1797106;79;26375;-80
2021/06/03 04:00:23;;;;;;;12.20;6.00;;;;;;;6.03;69.82;98031.41;1797229;77;25661;-84
2021/06/03 04:02:51;;;;;;;11.55;6.78;;;;;;;6.06;69.94;98028.38;1797188;77;27406;-83
2021/06/03 04:05:19;;;;;;;14.53;7.75;;;;;;;6.08;70.01;98021.02;1797151;77;26574;-83
2021/06/03 04:07:47;;;;;;;16.30;6.85;;;;;;;6.12;70.14;98029.56;1796960;77;25834;-79
2021/06/03 04:10:18;;;;;;;16.93;7.17;;;;;;;6.18;70.13;98028.03;1797151;77;25756;-86
2021/06/03 04:12:46;;;;;;;10.00;6.62;;;;;;;6.25;70.12;98025.03;1797030;77;25247;-81
2021/06/03 04:15:14;;;;;;;10.23;6.80;;;;;;;6.31;70.15;98026.52;1797017;77;27374;-78
2021/06/03 04:17:41;;;;;;;14.75;7.08;;;;;;;6.37;70.12;98029.04;1796957;77;26265;-82
2021/06/03 04:20:13;;;;;;;14.90;6.87;;;;;;;6.42;70.13;98030.69;1797240;77;25349;-86
2021/06/03 04:22:40;;;;;;;12.90;7.55;;;;;;;6.44;70.18;98035.38;1797377;77;25534;-90
2021/06/03 04:25:08;;;;;;;13.58;7.25;;;;;;;6.45;70.12;98031.70;1797144;77;25779;-82
2021/06/03 04:27:35;;;;;;;14.55;7.45;;;;;;;6.49;70.12;98031.70;1796923;78;27408;-85
2021/06/03 04:30:04;;;;;;;17.45;7.95;;;;;;;6.51;70.21;98036.39;1797085;77;25820;-85
2021/06/03 04:32:30;;;;;;;14.40;7.15;;;;;;;6.54;70.17;98041.39;1797300;78;25776;-92
2021/06/03 04:34:58;;;;;;;12.47;6.78;;;;;;;6.56;70.20;98033.19;1797344;77;25680;-84
2021/06/03 04:37:26;;;;;;;8.85;6.90;;;;;;;6.59;70.25;98039.05;1797468;78;25713;-79
2021/06/03 04:39:53;;;;;;;11.97;7.47;;;;;;;6.64;70.32;98032.66;1797053;77;28430;-82
2021/06/03 04:42:20;;;;;;;13.53;7.20;;;;;;;6.72;70.26;98040.70;1797175;77;25804;-92
2021/06/03 04:44:47;;;;;;;10.00;6.97;;;;;;;6.78;70.29;98038.66;1796856;77;25999;-92
2021/06/03 04:47:13;;;;;;;10.25;7.17;;;;;;;6.85;70.26;98041.00;1811067;77;26058;-81
2021/06/03 04:49:40;;;;;;;14.75;6.65;;;;;;;6.92;70.32;98044.32;1833720;77;26369;-84
2021/06/03 04:52:26;;;;;;;14.23;7.83;;;;;;;6.96;70.25;98047.00;1833595;77;27468;-87
2021/06/03 04:55:07;;;;;;;15.40;7.53;;;;;;;6.99;70.18;98045.33;1833563;77;25926;-80
2021/06/03 04:57:35;;;;;;;15.53;8.08;;;;;;;7.03;70.19;98047.97;1833646;77;26010;-78
2021/06/03 05:00:06;;;;;;;15.50;7.65;;;;;;;7.06;70.16;98051.66;1833803;77;26032;-87
2021/06/03 05:02:33;;;;;;;13.55;7.30;;;;;;;7.10;70.25;98047.63;1833683;77;25631;-83
2021/06/03 05:04:59;;;;;;;13.72;8.50;;;;;;;7.15;70.32;98053.30;1833591;77;27449;-91
2021/06/03 05:07:26;;;;;;;12.60;7.20;;;;;;;7.21;70.35;98057.98;1833421;77;25767;-82
2021/06/03 05:09:53;;;;;;;11.48;7.25;;;;;;;7.26;70.47;98052.91;1833524;77;25718;-79
2021/06/03 05:12:19;;;;;;;8.75;6.92;;;;;;;7.32;70.40;98052.73;1833473;77;25703;-78
2021/06/03 05:14:46;;;;;;;10.20;7.20;;;;;;;7.37;70.44;98058.39;1833551;77;25679;-81
2021/06/03 05:17:13;;;;;;;13.62;7.80;;;;;;;7.42;70.47;98052.84;1833541;77;27294;-83
2021/06/03 05:19:40;;;;;;;15.93;6.87;;;;;;;7.47;70.26;98054.52;1833591;77;25751;-82
2021/06/03 05:22:07;;;;;;;10.48;6.55;;;;;;;7.55;70.29;98051.77;1833608;77;25392;-82
2021/06/03 05:24:36;;;;;;;11.93;7.62;;;;;;;7.62;70.41;98047.02;1833509;77;26054;-84
2021/06/03 05:27:05;;;;;;;15.32;7.55;;;;;;;7.69;70.28;98053.38;1833192;77;25769;-86
2021/06/03 05:29:31;;;;;;;12.33;7.87;;;;;;;7.77;70.28;98054.66;1833590;77;27548;-90
2021/06/03 05:31:58;;;;;;;11.18;7.47;;;;;;;7.84;70.47;98051.09;1833569;77;25976;-80
2021/06/03 05:34:25;;;;;;;15.13;7.97;;;;;;;7.91;70.54;98048.01;1833623;77;25683;-91
2021/06/03 05:36:51;;;;;;;16.75;9.05;;;;;;;8.01;70.23;98049.11;1833647;77;25663;-81
2021/06/03 05:39:18;;;;;;;13.80;8.60;;;;;;;8.10;70.17;98049.37;1833559;77;26484;-80
2021/06/03 05:41:46;;;;;;;12.18;7.85;;;;;;;8.22;70.18;98047.92;1833686;77;28076;-93
2021/06/03 05:44:14;;;;;;;15.10;8.15;;;;;;;8.33;70.01;98042.68;1833692;77;25770;-88
2021/06/03 05:46:42;;;;;;;12.65;8.05;;;;;;;8.44;70.08;98042.24;1833258;77;25754;-82
2021/06/03 05:49:10;;;;;;;9.28;6.37;;;;;;;8.56;70.07;98046.16;1796872;78;25656;-79
2021/06/03 05:51:40;;;;;;;16.90;8.23;;;;;;;8.69;69.96;98048.22;1797002;77;25731;-89
2021/06/03 05:54:08;;;;;;;11.30;7.22;;;;;;;8.82;69.93;98039.48;1797086;79;27324;-82
2021/06/03 05:56:35;;;;;;;12.10;7.58;;;;;;;8.94;69.90;98039.34;1797238;77;25775;-83
2021/06/03 05:59:03;;;;;;;8.50;6.92;;;;;;;9.07;69.72;98040.88;1797162;77;25846;-80
2021/06/03 06:01:30;;;;;;;11.55;6.80;;;;;;;9.20;69.69;98042.91;1796937;79;26037;-81
2021/06/03 06:06:24;;;;;;;12.37;6.12;;;;;;;9.46;69.39;98047.30;1796961;77;27427;-82
2021/06/03 06:08:56;;;;;;;7.72;5.72;;;;;;;9.58;69.20;98044.44;1796744;77;25787;-79
2021/06/03 06:11:25;;;;;;;;;;;;;;;9.72;68.83;98043.57;1799863;79;25756;-78
2021/06/03 06:13:52;;;;;;;8.18;5.97;;;;;;;9.86;68.67;98033.77;1797186;77;25681;-78
2021/06/03 06:16:19;;;;;;;9.73;6.17;;;;;;;9.97;68.38;98037.81;1797178;77;25715;-81
2021/06/03 06:18:46;;;;;;;9.18;6.03;;;;;;;10.08;68.16;98034.09;1796931;77;27402;-80
2021/06/03 06:21:17;;;;;;;15.40;6.58;;;;;;;10.21;68.10;98028.02;1796526;77;25789;-85
2021/06/03 06:23:45;;;;;;;12.07;6.83;;;;;;;10.35;68.24;98031.67;1796685;77;25780;-81
2021/06/03 06:26:12;;;;;;;13.90;7.12;;;;;;;10.51;68.22;98034.06;1796895;79;25760;-86
2021/06/03 06:28:39;;;;;;;11.30;6.67;;;;;;;10.65;67.62;98037.70;1797227;79;25740;-80
2021/06/03 06:31:06;;;;;;;11.53;5.92;;;;;;;10.79;67.36;98038.12;1797502;78;27355;-83
2021/06/03 06:33:34;;;;;;;8.73;6.03;;;;;;;10.91;67.16;98039.25;1797086;77;25733;-81
2021/06/03 06:36:03;;;;;;;9.53;5.45;;;;;;;11.05;67.00;98036.11;1797172;79;25720;-87
2021/06/03 06:38:30;;;;;;;8.35;5.10;;;;;;;11.21;66.70;98036.31;1797150;77;25763;-84
2021/06/03 06:40:58;;;;;;;7.35;5.03;;;;;;;11.36;66.47;98031.58;1797289;77;26379;-86
2021/06/03 06:43:25;;;;;;;7.30;5.28;;;;;;;11.54;66.19;98040.00;1797233;77;27372;-85
2021/06/03 06:45:52;;;;;;;7.10;5.40;;;;;;;11.71;66.04;98032.38;1797020;77;25739;-86
2021/06/03 06:48:18;;;;;;;7.62;4.78;;;;;;;11.84;65.90;98025.13;1816795;77;25697;-90
2021/06/03 06:50:48;;;;;;;6.90;4.05;;;;;;;11.99;65.14;98024.97;1833560;77;25720;-85
2021/06/03 06:53:16;;;;;;;7.87;5.17;;;;;;;12.16;64.92;98030.83;1833596;77;25802;-90
2021/06/03 06:55:43;;;;;;;6.47;4.47;;;;;;;12.29;64.76;98026.80;1833686;77;27203;-88
2021/06/03 06:58:11;;;;;;;7.28;4.85;;;;;;;12.45;64.72;98027.72;1833542;77;26376;-91
2021/06/03 07:00:41;;;;;;;6.83;4.92;;;;;;;12.58;64.50;98029.07;1833540;77;25836;-88
2021/06/03 07:03:10;;;;;;;7.22;4.95;;;;;;;12.74;64.36;98028.34;1833577;77;26327;-87
2021/06/03 07:05:41;;;;;;;6.97;4.83;;;;;;;12.88;64.06;98022.70;1833771;77;25719;-89
2021/06/03 07:08:08;;;;;;;7.22;4.78;;;;;;;13.02;63.77;98022.68;1833691;77;28157;-90
2021/06/03 07:10:35;;;;;;;5.55;4.58;;;;;;;13.16;63.61;98025.70;1833630;77;25747;-88
2021/06/03 07:13:02;;;;;;;6.55;4.40;;;;;;;13.31;63.56;98020.84;1833573;77;25806;-84
2021/06/03 07:15:29;;;;;;;7.65;4.37;;;;;;;13.48;63.24;98016.62;1833714;77;25790;-94
2021/06/03 07:17:56;;;;;;;6.60;4.28;;;;;;;13.62;62.84;98018.75;1833592;77;25818;-86
2021/06/03 07:20:24;;;;;;;6.05;4.37;;;;;;;13.77;62.64;98013.86;1833471;77;27433;-89
2021/06/03 07:23:00;;;;;;;7.72;4.17;;;;;;;13.92;62.08;98014.92;1833657;77;25902;-87
2021/06/03 07:25:24;;;;;;;11.97;4.10;;;;;;;14.14;62.34;98018.13;1833065;77;25786;-89
2021/06/03 07:27:53;;;;;;;4.55;3.47;;;;;;;14.31;61.69;98013.84;1833177;77;25750;-87
2021/06/03 07:30:23;;;;;;;11.50;3.72;;;;;;;14.50;60.97;98010.68;1833587;77;25704;-90
2021/06/03 07:32:52;;;;;;;4.83;3.08;;;;;;;14.68;60.30;98011.58;1833582;76;26833;-87
2021/06/03 07:35:20;;;;;;;4.12;3.15;;;;;;;14.87;59.85;98007.00;1833648;77;25813;-85
2021/06/03 07:37:49;;;;;;;5.58;2.70;;;;;;;15.18;60.31;98004.71;1833460;77;25731;-91
2021/06/03 07:40:22;;;;;;;4.45;2.45;;;;;;;15.44;59.94;98009.85;1816929;77;25639;-84
2021/06/03 07:42:50;;;;;;;4.08;2.25;;;;;;;15.68;58.90;98011.37;1814891;77;25824;-91
2021/06/03 07:45:22;;;;;;;3.90;2.77;;;;;;;15.89;58.42;98004.06;1833416;77;28206;-91
2021/06/03 07:47:51;;;;;;;4.53;2.08;;;;;;;16.17;58.03;98004.29;1834942;76;32789;-87
2021/06/03 07:50:18;;;;;;;4.10;2.40;;;;;;;16.41;57.30;97998.37;1811105;77;25677;-89
2021/06/03 07:52:45;;;;;;;2.47;2.20;;;;;;;16.75;56.42;98004.12;1841324;77;25749;-92
2021/06/03 07:55:15;;;;;;;6.72;2.60;;;;;;;17.16;56.11;98000.41;1840335;77;25731;-93
2021/06/03 07:57:44;;;;;;;4.22;2.37;;;;;;;17.66;55.54;97997.97;1840785;77;28260;-88
2021/06/03 08:00:16;;;;;;;4.40;2.37;;;;;;;18.25;54.48;97994.45;1839831;77;25797;-87
2021/06/03 08:02:45;;;;;;;5.58;2.33;;;;;;;18.84;53.48;98003.12;1821844;77;25704;-91
2021/06/03 08:05:15;;;;;;;4.58;2.37;;;;;;;19.47;52.56;98004.05;1831607;77;25425;-87
2021/06/03 08:07:43;;;;;;;3.40;2.20;;;;;;;20.08;51.88;97997.95;1823890;77;26375;-89
2021/06/03 08:10:14;;;;;;;4.05;2.42;;;;;;;20.68;50.90;97994.16;1828336;77;27429;-87
2021/06/03 08:12:41;;;;;;;6.67;4.30;;;;;;;21.18;50.30;97986.33;1797296;77;25238;-85
2021/06/03 08:15:11;;;;;;;5.33;3.00;;;;;;;21.67;49.19;97993.45;1797174;77;25693;-88
2021/06/03 08:17:38;;;;;;;3.25;2.50;;;;;;;22.09;48.37;97998.31;1840994;77;25746;-85
2021/06/03 08:20:16;;;;;;;3.15;2.20;;;;;;;22.50;47.72;97996.44;1823831;77;25864;-92
2021/06/03 08:22:43;;;;;;;4.92;2.37;;;;;;;22.92;46.73;97993.47;1832135;77;28011;-84
2021/06/03 08:25:15;;;;;;;9.55;2.83;;;;;;;23.09;45.19;97991.77;1841484;77;25739;-83
2021/06/03 08:27:42;;;;;;;4.10;2.10;;;;;;;23.44;44.79;97987.28;1841195;77;25754;-88
2021/06/03 08:30:12;;;;;;;4.05;2.12;;;;;;;23.82;44.25;97999.03;1841511;77;25776;-94
2021/06/03 08:32:40;;;;;;;2.70;2.30;;;;;;;24.18;43.19;98000.22;1841951;77;25691;-87
2021/06/03 08:35:14;;;;;;;5.08;2.10;;;;;;;24.38;42.04;97993.26;1841533;77;28202;-89
2021/06/03 08:37:37;;;;;;;4.83;2.12;;;;;;;24.61;41.87;97989.77;1840525;77;25671;-86
2021/06/03 08:40:05;;;;;;;5.40;2.20;;;;;;;24.90;40.75;97988.97;1818347;77;25709;-89
2021/06/03 08:42:32;;;;;;;5.12;2.45;;;;;;;25.21;39.73;97987.61;1822201;77;25706;-90
2021/06/03 08:44:59;;;;;;;3.15;1.87;;;;;;;25.61;39.99;97986.91;1825661;77;25916;-88
2021/06/03 08:47:25;;;;;;;4.20;1.98;;;;;;;26.02;39.46;97990.83;1841609;77;27335;-88
2021/06/03 08:49:52;;;;;;;3.47;2.15;;;;;;;26.42;39.07;97989.47;1842234;77;25801;-88
2021/06/03 08:52:19;;;;;;;2.50;2.00;;;;;;;26.71;37.81;97989.84;1844531;77;26385;-89
2021/06/03 08:54:45;;;;;;;4.00;1.98;;;;;;;26.82;37.05;97988.54;1844633;77;25816;-91
2021/06/03 08:57:12;;;;;;;1.77;1.67;;;;;;;27.08;37.19;97986.19;1812893;77;25658;-87
2021/06/03 08:59:40;;;;;;;2.40;2.20;;;;;;;27.34;36.22;97985.99;1844544;77;27436;-91
2021/06/03 09:02:07;;;;;;;4.67;2.12;;;;;;;27.59;36.13;97984.15;1844544;77;25805;-86
2021/06/03 09:04:33;;;;;;;3.98;1.72;;;;;;;27.67;34.74;97985.94;1844585;77;25726;-88
2021/06/03 09:07:00;;;;;;;3.27;1.92;;;;;;;27.75;34.15;97978.30;1844397;77;25742;-86
2021/06/03 09:09:29;;;;;;;5.47;2.30;;;;;;;27.94;33.60;97978.99;1844284;77;25715;-91
2021/06/03 09:12:12;;;;;;;3.20;2.00;;;;;;;27.91;33.70;97973.49;1844444;77;27422;-88
2021/06/03 09:14:39;;;;;;;4.05;2.40;;;;;;;27.66;33.25;97976.80;1821171;77;25833;-92
2021/06/03 09:17:10;;;;;;;4.83;1.85;;;;;;;27.85;33.36;97968.38;1844601;77;25714;-87
2021/06/03 09:19:51;;;;;;;3.42;2.20;;;;;;;27.97;33.82;97978.38;1844140;77;27096;-89
2021/06/03 09:22:42;;;;;;;4.12;2.17;;;;;;;28.26;33.84;97976.08;1816627;76;25702;-85
2021/06/03 09:25:39;;;;;;;2.67;2.33;;;;;;;28.65;33.21;97980.17;1818964;76;27345;-84
2021/06/03 09:28:32;;;;;;;4.15;2.20;;;;;;;28.78;32.70;97979.33;1808266;77;25725;-84
2021/06/03 09:31:06;;;;;;;4.00;2.20;;;;;;;28.97;32.16;97974.41;1843157;77;25215;-85
2021/06/03 09:33:50;;;;;;;2.27;2.08;;;;;;;28.84;31.81;97973.09;1843343;77;26307;-85
2021/06/03 09:36:49;;;;;;;4.85;2.20;;;;;;;28.77;31.40;97971.27;1811760;77;25687;-86
2021/06/03 09:39:23;;;;;;;4.85;2.30;;;;;;;28.66;31.07;97972.09;1843335;77;28051;-84
2021/06/03 09:42:16;;;;;;;5.75;2.67;;;;;;;28.58;31.80;97971.47;1841460;76;25718;-86
2021/06/03 09:44:58;;;;;;;4.28;3.20;;;;;;;28.71;30.52;97973.37;1840804;77;25730;-85
2021/06/03 09:47:35;;;;;;;8.45;2.70;;;;;;;28.80;31.04;97973.46;1844086;77;25948;-85
2021/06/03 09:50:02;;;;;;;2.85;2.33;;;;;;;28.91;30.43;97963.16;1841912;77;25525;-84
2021/06/03 09:52:33;;;;;;;6.45;3.47;;;;;;;28.98;30.80;97967.69;1844407;77;27392;-85
2021/06/03 09:55:07;;;;;;;2.98;2.45;;;;;;;29.09;30.70;97973.02;1844397;77;25738;-85
2021/06/03 09:57:37;;;;;;;6.42;2.80;;;;;;;29.20;30.41;97965.47;1844420;77;25778;-83
2021/06/03 10:00:19;;;;;;;2.80;2.60;;;;;;;29.19;29.59;97975.52;1844661;77;25371;-86
2021/06/03 10:02:46;;;;;;;3.50;2.47;;;;;;;29.12;30.05;97975.13;1836948;77;25821;-83
2021/06/03 10:05:19;;;;;;;3.35;2.70;;;;;;;28.99;28.88;97965.73;1831984;77;27374;-84
2021/06/03 10:08:01;;;;;;;3.45;2.72;;;;;;;28.65;29.33;97970.45;1844435;77;26481;-84
2021/06/03 10:10:30;;;;;;;4.53;2.47;;;;;;;28.61;29.52;97971.67;1844924;77;25666;-84
2021/06/03 10:12:57;;;;;;;4.58;2.27;;;;;;;28.66;29.29;97970.70;1844801;77;25711;-85
2021/06/03 10:15:29;;;;;;;7.78;2.35;;;;;;;28.58;29.28;97971.47;1844766;77;25626;-84
2021/06/03 10:18:04;;;;;;;3.90;2.70;;;;;;;28.62;29.25;97964.13;1844658;77;27446;-82
2021/06/03 10:20:53;;;;;;;4.80;2.35;;;;;;;28.66;29.27;97964.59;1842421;77;25267;-87
2021/06/03 10:23:29;;;;;;;3.87;2.55;;;;;;;28.51;28.84;97968.29;1823912;77;25768;-85
2021/06/03 10:26:03;;;;;;;4.67;2.20;;;;;;;28.34;28.80;97966.77;1844678;77;25659;-85
2021/06/03 10:28:30;;;;;;;3.45;2.37;;;;;;;28.40;29.20;97976.05;1844792;77;25646;-85
2021/06/03 10:31:06;;;;;;;3.08;2.42;;;;;;;28.36;28.23;97967.28;1844668;77;27374;-85
2021/06/03 10:33:31;;;;;;;4.83;2.47;;;;;;;28.39;28.54;97970.80;1843740;77;26218;-84
2021/06/03 10:36:03;;;;;;;4.47;2.27;;;;;;;28.31;28.89;97970.42;1844581;77;26361;-84
2021/06/03 10:38:30;;;;;;;3.67;2.70;;;;;;;28.41;29.22;97958.25;1844774;77;25766;-84
2021/06/03 10:41:02;;;;;;;6.50;2.33;;;;;;;28.47;28.77;97958.97;1844463;77;25758;-86
2021/06/03 10:43:34;;;;;;;6.00;2.35;;;;;;;28.36;28.44;97961.73;1844585;77;27334;-84
2021/06/03 10:46:01;;;;;;;4.10;2.87;;;;;;;28.44;28.88;97956.81;1844280;77;34817;-86
2021/06/03 10:48:27;;;;;;;6.10;2.90;;;;;;;28.34;28.97;97966.20;1844401;77;25670;-85
2021/06/03 10:50:56;;;;;;;3.92;2.58;;;;;;;28.29;28.69;97961.58;1844080;77;25680;-83
2021/06/03 10:53:27;;;;;;;7.03;2.85;;;;;;;28.24;29.01;97960.89;1844320;77;25778;-83
2021/06/03 10:55:59;;;;;;;5.00;2.77;;;;;;;28.34;29.04;97960.66;1844892;77;28203;-86
2021/06/03 10:58:35;;;;;;;4.40;2.45;;;;;;;28.43;29.24;97951.00;1844753;77;25980;-84
2021/06/03 11:01:18;;;;;;;4.40;2.60;;;;;;;28.54;28.77;97953.78;1844619;77;26313;-84
2021/06/03 11:03:49;;;;;;;4.20;2.52;;;;;;;28.48;29.33;97956.45;1844280;77;26687;-85
2021/06/03 11:06:20;;;;;;;2.62;2.10;;;;;;;28.51;28.47;97953.02;1844790;77;25654;-85
2021/06/03 11:09:05;;;;;;;4.28;2.10;;;;;;;28.29;28.45;97953.25;1844688;77;27348;-85
2021/06/03 11:11:40;;;;;;;4.42;2.40;;;;;;;28.31;28.68;97942.66;1844136;77;25884;-84
2021/06/03 11:14:14;;;;;;;3.70;2.10;;;;;;;28.14;28.41;97949.40;1844633;77;25734;-85
2021/06/03 11:16:46;;;;;;;4.15;2.12;;;;;;;28.09;28.84;97960.63;1844601;77;26920;-84
2021/06/03 11:19:17;;;;;;;2.95;2.25;;;;;;;28.20;28.01;97946.81;1844545;77;25215;-84
2021/06/03 11:21:48;;;;;;;3.58;2.17;;;;;;;28.25;28.33;97944.50;1826276;76;28219;-84
2021/06/03 11:24:39;;;;;;;3.80;2.70;;;;;;;28.41;28.68;97938.82;1800346;77;34765;-86
2021/06/03 11:27:13;;;;;;;4.17;2.52;;;;;;;28.66;28.87;97937.38;1848268;77;25711;-85
2021/06/03 11:29:51;;;;;;;3.17;2.75;;;;;;;28.78;28.30;97947.38;1837661;76;25686;-85
2021/06/03 11:32:22;;;;;;;3.83;2.00;;;;;;;28.75;28.45;97943.80;1819368;77;26455;-83
2021/06/03 11:34:53;;;;;;;4.70;2.83;;;;;;;28.63;27.37;97938.00;1837707;76;27337;-83
2021/06/03 11:37:31;;;;;;;5.33;2.20;;;;;;;28.60;27.41;97941.43;1822358;77;25759;-87
2021/06/03 11:40:09;;;;;;;3.12;2.20;;;;;;;28.61;27.14;97937.52;1842031;77;25726;-88
2021/06/03 11:42:46;;;;;;;2.80;1.98;;;;;;;28.49;27.48;97940.04;1827229;77;25793;-90
2021/06/03 11:45:24;;;;;;;3.95;2.40;;;;;;;28.51;27.84;97950.23;1841962;76;25761;-85
2021/06/03 11:47:56;;;;;;;7.55;2.25;;;;;;;28.50;28.15;97950.02;1844611;77;27513;-86
2021/06/03 11:50:28;;;;;;;5.25;2.65;;;;;;;28.43;27.98;97942.67;1843636;77;25914;-84